Terminal Aerodrome Forecast
Issued by NWS Brownsville, TX

Home | Current Version | Previous Version | Text Only | Print | Product List | Glossary On
Versions: 1 2 3 4 5 6 7 8 9 10 11 12 13 14 15 16 17
000
FTUS44 KBRO 290400 AAA
TAFHRL
TAF AMD
KHRL 290419Z 2904/2924 03007KT P6SM BKN013 OVC060
     FM291100 34006KT 3SM BR BKN015 BKN200
     FM291500 04006KT P6SM SCT025 SCT250=

USA.gov is the U.S. government's official web portal to all federal, state and local government web resources and services.